createdAt,value
2017-07-09T00:02:09.431Z,2.30
2017-07-09T00:04:37.124Z,2.37
2017-07-09T00:07:04.729Z,2.33
2017-07-09T00:09:32.331Z,2.73
2017-07-09T00:12:01.185Z,2.90
2017-07-09T00:14:28.820Z,2.70
2017-07-09T00:16:56.386Z,2.23
2017-07-09T00:19:23.948Z,2.30
2017-07-09T00:21:51.555Z,2.30
2017-07-09T00:24:19.125Z,3.10
2017-07-09T00:26:47.454Z,2.40
2017-07-09T00:29:15.063Z,2.73
2017-07-09T00:31:43.440Z,2.57
2017-07-09T00:34:11.770Z,4.10
2017-07-09T00:36:39.375Z,2.53
2017-07-09T00:39:07.766Z,2.33
2017-07-09T00:41:35.518Z,2.33
2017-07-09T00:44:03.859Z,2.50
2017-07-09T00:46:31.470Z,2.30
2017-07-09T00:48:59.031Z,2.80
2017-07-09T00:51:26.596Z,2.57
2017-07-09T00:53:54.216Z,2.50
2017-07-09T00:56:22.543Z,2.43
2017-07-09T00:58:50.167Z,2.30
2017-07-09T01:01:18.504Z,2.47
2017-07-09T01:03:46.072Z,2.30
2017-07-09T01:06:13.686Z,2.30
2017-07-09T01:08:41.283Z,2.20
2017-07-09T01:11:08.872Z,2.60
2017-07-09T01:13:37.263Z,2.20
2017-07-09T01:16:04.879Z,2.20
2017-07-09T01:18:32.454Z,2.40
2017-07-09T01:21:00.026Z,2.40
2017-07-09T01:23:27.658Z,2.73
2017-07-09T01:25:55.237Z,2.60
2017-07-09T01:28:23.584Z,2.20
2017-07-09T01:30:51.195Z,2.70
2017-07-09T01:33:18.775Z,2.80
2017-07-09T01:35:47.222Z,2.70
2017-07-09T01:38:14.851Z,2.40
2017-07-09T01:40:42.442Z,3.10
2017-07-09T01:43:10.023Z,2.20
2017-07-09T01:45:37.635Z,2.53
2017-07-09T01:48:05.227Z,2.53
2017-07-09T01:50:32.839Z,2.70
2017-07-09T01:53:00.424Z,1.93
2017-07-09T01:55:27.958Z,2.20
2017-07-09T01:57:55.542Z,2.43
2017-07-09T02:00:23.870Z,2.77
2017-07-09T02:02:51.397Z,3.10
2017-07-09T02:05:18.985Z,2.33
2017-07-09T02:07:46.525Z,2.30
2017-07-09T02:10:14.091Z,2.50
2017-07-09T02:12:41.625Z,2.37
2017-07-09T02:15:09.201Z,2.53
2017-07-09T02:17:36.764Z,2.47
2017-07-09T02:20:04.307Z,2.70
2017-07-09T02:22:31.860Z,2.50
2017-07-09T02:24:59.384Z,2.20
2017-07-09T02:27:26.973Z,2.20
2017-07-09T02:29:54.509Z,2.37
2017-07-09T02:32:22.845Z,2.27
2017-07-09T02:34:50.456Z,2.30
2017-07-09T02:37:17.989Z,2.33
2017-07-09T02:39:45.520Z,2.20
2017-07-09T02:42:13.082Z,2.17
2017-07-09T02:44:40.661Z,2.60
2017-07-09T02:47:08.209Z,2.17
2017-07-09T02:49:35.745Z,1.80
2017-07-09T02:52:03.340Z,2.20
2017-07-09T02:54:30.869Z,2.00
2017-07-09T02:56:58.398Z,1.97
2017-07-09T02:59:25.962Z,2.13
2017-07-09T03:01:53.526Z,2.50
2017-07-09T03:04:21.117Z,2.00
2017-07-09T03:06:48.889Z,1.90
2017-07-09T03:09:16.672Z,2.20
2017-07-09T03:11:45.033Z,2.70
2017-07-09T03:14:13.455Z,2.57
2017-07-09T03:16:41.709Z,2.63
2017-07-09T03:19:10.071Z,2.20
2017-07-09T03:21:38.394Z,1.93
2017-07-09T03:24:05.958Z,2.17
2017-07-09T03:26:33.529Z,1.87
2017-07-09T03:29:01.074Z,1.57
2017-07-09T03:31:28.613Z,2.20
2017-07-09T03:33:56.202Z,2.73
2017-07-09T03:36:23.733Z,2.30
2017-07-09T03:38:51.309Z,1.83
2017-07-09T03:41:18.858Z,2.57
2017-07-09T03:43:46.392Z,2.37
2017-07-09T03:46:14.726Z,2.33
2017-07-09T03:48:42.274Z,2.50
2017-07-09T03:51:09.882Z,2.10
2017-07-09T03:53:37.530Z,1.73
2017-07-09T03:56:05.085Z,2.07
2017-07-09T03:58:33.374Z,2.10
2017-07-09T04:01:00.948Z,2.50
2017-07-09T04:03:28.507Z,2.50
2017-07-09T04:05:56.053Z,2.30
2017-07-09T04:08:23.622Z,1.80
2017-07-09T04:10:51.158Z,2.40
2017-07-09T04:13:19.489Z,2.80
2017-07-09T04:15:47.059Z,2.40
2017-07-09T04:18:14.605Z,2.60
2017-07-09T04:20:42.174Z,2.10
2017-07-09T04:23:09.708Z,2.43
2017-07-09T04:25:37.235Z,2.50
2017-07-09T04:28:04.822Z,2.30
2017-07-09T04:30:32.375Z,2.57
2017-07-09T04:32:59.916Z,1.90
2017-07-09T04:35:27.496Z,2.13
2017-07-09T04:37:55.028Z,1.80
2017-07-09T04:40:22.570Z,2.20
2017-07-09T04:42:50.170Z,1.77
2017-07-09T04:45:17.730Z,2.33
2017-07-09T04:47:46.131Z,2.00
2017-07-09T04:50:13.721Z,2.30
2017-07-09T04:52:41.282Z,1.90
2017-07-09T04:55:08.863Z,2.33
2017-07-09T04:57:36.442Z,2.40
2017-07-09T05:00:04.007Z,1.93
2017-07-09T05:02:31.766Z,2.20
2017-07-09T05:04:59.325Z,1.70
2017-07-09T05:07:26.937Z,2.47
2017-07-09T05:09:54.559Z,2.17
2017-07-09T05:12:22.165Z,1.60
2017-07-09T05:14:49.726Z,2.00
2017-07-09T05:17:17.326Z,2.00
2017-07-09T05:19:44.890Z,1.90
2017-07-09T05:22:12.485Z,1.80
2017-07-09T05:24:40.081Z,2.23
2017-07-09T05:27:07.676Z,1.73
2017-07-09T05:29:35.273Z,2.30
2017-07-09T05:32:02.895Z,1.50
2017-07-09T05:34:30.455Z,1.40
2017-07-09T05:36:58.046Z,1.70
2017-07-09T05:39:25.659Z,1.50
2017-07-09T05:41:53.308Z,2.17
2017-07-09T05:44:20.881Z,2.53
2017-07-09T05:46:48.493Z,1.80
2017-07-09T05:49:16.109Z,1.70
2017-07-09T05:51:43.661Z,1.50
2017-07-09T05:54:11.214Z,2.27
2017-07-09T05:56:38.959Z,2.33
2017-07-09T05:59:06.517Z,2.30
2017-07-09T06:01:34.061Z,2.50
2017-07-09T06:04:02.694Z,2.50
2017-07-09T06:06:31.034Z,1.73
2017-07-09T06:08:58.637Z,1.87
2017-07-09T06:11:26.954Z,2.23
2017-07-09T06:13:54.697Z,1.97
2017-07-09T06:16:22.301Z,2.27
2017-07-09T06:18:49.847Z,2.50
2017-07-09T06:21:17.453Z,2.40
2017-07-09T06:23:45.829Z,2.50
2017-07-09T06:26:14.170Z,3.10
2017-07-09T06:28:41.766Z,3.20
2017-07-09T06:31:10.073Z,2.53
2017-07-09T06:33:37.605Z,2.40
2017-07-09T06:36:05.980Z,2.53
2017-07-09T06:38:33.529Z,2.17
2017-07-09T06:41:01.858Z,2.67
2017-07-09T06:43:29.501Z,2.83
2017-07-09T06:45:57.045Z,3.17
2017-07-09T06:48:25.509Z,2.80
2017-07-09T06:50:53.852Z,3.70
2017-07-09T06:53:21.377Z,3.13
2017-07-09T06:55:48.912Z,2.50
2017-07-09T06:58:17.262Z,3.10
2017-07-09T07:00:45.676Z,3.70
2017-07-09T07:03:13.238Z,3.80
2017-07-09T07:05:40.849Z,5.00
2017-07-09T07:08:08.390Z,3.63
2017-07-09T07:10:35.944Z,4.87
2017-07-09T07:13:03.528Z,4.10
2017-07-09T07:15:31.297Z,4.57
2017-07-09T07:17:58.915Z,4.50
2017-07-09T07:20:26.461Z,4.80
2017-07-09T07:22:54.051Z,4.73
2017-07-09T07:25:21.598Z,4.83
2017-07-09T07:27:49.218Z,4.77
2017-07-09T07:30:16.808Z,5.00
2017-07-09T07:32:44.416Z,5.93
2017-07-09T07:35:12.009Z,4.93
2017-07-09T07:37:39.569Z,5.07
2017-07-09T07:40:07.236Z,5.77
2017-07-09T07:42:34.816Z,6.53
2017-07-09T07:45:02.383Z,6.17
2017-07-09T07:47:29.939Z,6.00
2017-07-09T07:49:57.639Z,6.73
2017-07-09T07:52:25.249Z,5.30
2017-07-09T07:54:52.825Z,5.20
2017-07-09T07:57:20.429Z,6.47
2017-07-09T07:59:47.996Z,5.63
2017-07-09T08:02:15.597Z,5.87
2017-07-09T08:04:43.361Z,4.93
2017-07-09T08:07:10.992Z,3.80
2017-07-09T08:09:38.611Z,4.63
2017-07-09T08:12:06.190Z,5.03
2017-07-09T08:14:33.775Z,4.87
2017-07-09T08:17:01.440Z,4.30
2017-07-09T08:19:29.045Z,5.00
2017-07-09T08:21:56.746Z,4.37
2017-07-09T08:24:24.317Z,4.27
2017-07-09T08:26:53.163Z,4.43
2017-07-09T08:29:20.843Z,4.00
2017-07-09T08:31:48.399Z,4.00
2017-07-09T08:34:17.986Z,4.17
2017-07-09T08:36:45.579Z,4.10
2017-07-09T08:39:13.189Z,3.40
2017-07-09T08:41:40.782Z,4.40
2017-07-09T08:44:08.362Z,3.93
2017-07-09T08:46:36.166Z,4.00
2017-07-09T08:49:03.758Z,3.83
2017-07-09T08:51:31.426Z,3.90
2017-07-09T08:53:59.943Z,3.40
2017-07-09T08:56:27.570Z,2.97
2017-07-09T08:58:55.206Z,3.37
2017-07-09T09:01:22.774Z,3.67
2017-07-09T09:03:50.355Z,2.70
2017-07-09T09:06:17.913Z,2.70
2017-07-09T09:08:45.461Z,3.00
2017-07-09T09:11:13.054Z,3.33
2017-07-09T09:13:40.618Z,3.10
2017-07-09T09:16:08.180Z,2.70
2017-07-09T09:18:35.757Z,3.10
2017-07-09T09:21:04.135Z,3.00
2017-07-09T09:23:31.668Z,2.70
2017-07-09T09:25:59.253Z,3.00
2017-07-09T09:28:26.857Z,2.90
2017-07-09T09:30:54.405Z,2.70
2017-07-09T09:33:22.003Z,3.00
2017-07-09T09:35:49.624Z,3.17
2017-07-09T09:38:17.201Z,2.73
2017-07-09T09:40:45.487Z,4.00
2017-07-09T09:43:13.113Z,3.13
2017-07-09T09:45:40.689Z,2.80
2017-07-09T09:48:08.229Z,3.50
2017-07-09T09:50:35.818Z,2.90
2017-07-09T09:53:03.382Z,2.77
2017-07-09T09:55:30.969Z,2.80
2017-07-09T09:57:59.318Z,2.70
2017-07-09T10:00:26.866Z,2.70
2017-07-09T10:02:54.453Z,3.00
2017-07-09T10:05:22.805Z,3.70
2017-07-09T10:07:50.349Z,4.00
2017-07-09T10:10:17.909Z,3.60
2017-07-09T10:12:45.456Z,3.43
2017-07-09T10:15:13.018Z,3.00
2017-07-09T10:17:40.609Z,3.20
2017-07-09T10:20:08.143Z,2.77
2017-07-09T10:22:35.685Z,3.00
2017-07-09T10:25:03.256Z,3.13
2017-07-09T10:27:30.802Z,3.30
2017-07-09T10:29:58.425Z,3.10
2017-07-09T10:32:26.745Z,3.20
2017-07-09T10:34:54.265Z,3.90
2017-07-09T10:37:21.842Z,3.93
2017-07-09T10:39:51.167Z,3.33
2017-07-09T10:42:18.735Z,2.80
2017-07-09T10:44:46.335Z,3.40
2017-07-09T10:47:13.934Z,3.70
2017-07-09T10:49:41.513Z,3.43
2017-07-09T10:52:09.071Z,3.67
2017-07-09T10:54:36.725Z,3.50
2017-07-09T10:57:04.281Z,3.97
2017-07-09T10:59:31.861Z,3.40
2017-07-09T11:01:59.453Z,3.60
2017-07-09T11:04:27.910Z,4.10
2017-07-09T11:06:55.501Z,3.80
2017-07-09T11:09:23.116Z,4.00
2017-07-09T11:11:50.680Z,3.60
2017-07-09T11:14:18.247Z,3.50
2017-07-09T11:16:46.750Z,3.93
2017-07-09T11:19:14.333Z,3.70
2017-07-09T11:21:42.732Z,4.70
2017-07-09T11:24:10.400Z,3.80
2017-07-09T11:26:38.993Z,3.60
2017-07-09T11:29:06.546Z,3.53
2017-07-09T11:31:34.088Z,3.97
2017-07-09T11:34:01.676Z,3.53
2017-07-09T11:36:29.238Z,3.87
2017-07-09T11:38:56.764Z,4.30
2017-07-09T11:41:24.356Z,4.30
2017-07-09T11:43:52.009Z,2.90
2017-07-09T11:46:19.575Z,3.50
2017-07-09T11:48:47.906Z,3.70
2017-07-09T11:51:15.442Z,3.70
2017-07-09T11:53:43.022Z,3.37
2017-07-09T11:56:10.567Z,3.83
2017-07-09T11:58:38.088Z,3.67
2017-07-09T12:01:06.461Z,3.53
2017-07-09T12:03:34.777Z,3.43
2017-07-09T12:06:02.320Z,4.23
2017-07-09T12:08:29.939Z,3.00
2017-07-09T12:10:57.493Z,3.90
2017-07-09T12:13:25.057Z,3.17
2017-07-09T12:15:52.676Z,3.23
2017-07-09T12:18:20.242Z,3.10
2017-07-09T12:20:47.772Z,3.70
2017-07-09T12:23:15.357Z,3.20
2017-07-09T12:25:42.929Z,3.57
2017-07-09T12:28:10.485Z,3.60
2017-07-09T12:30:38.839Z,4.40
2017-07-09T12:33:06.376Z,4.07
2017-07-09T12:35:34.749Z,3.50
2017-07-09T12:38:02.288Z,3.57
2017-07-09T12:40:29.900Z,3.17
2017-07-09T12:42:57.474Z,3.20
2017-07-09T12:45:25.039Z,3.57
2017-07-09T12:47:52.619Z,3.43
2017-07-09T12:50:20.163Z,3.10
2017-07-09T12:52:47.679Z,3.30
2017-07-09T12:55:15.243Z,3.07
2017-07-09T12:57:42.823Z,3.70
2017-07-09T13:00:10.398Z,3.10
2017-07-09T13:02:37.960Z,3.50
2017-07-09T13:05:05.525Z,2.90
2017-07-09T13:07:33.100Z,3.40
2017-07-09T13:10:01.445Z,2.80
2017-07-09T13:12:29.022Z,3.20
2017-07-09T13:14:56.556Z,3.10
2017-07-09T13:17:24.080Z,3.40
2017-07-09T13:19:51.677Z,3.10
2017-07-09T13:22:19.214Z,3.03
2017-07-09T13:24:46.777Z,2.90
2017-07-09T13:27:14.393Z,3.43
2017-07-09T13:29:41.927Z,3.43
2017-07-09T13:32:10.229Z,3.57
2017-07-09T13:34:38.164Z,3.13
2017-07-09T13:37:05.733Z,3.97
2017-07-09T13:39:34.071Z,3.20
2017-07-09T13:42:01.670Z,3.47
2017-07-09T13:44:29.986Z,2.97
2017-07-09T13:46:57.520Z,3.37
2017-07-09T13:49:25.114Z,2.90
2017-07-09T13:51:52.642Z,3.47
2017-07-09T13:54:20.174Z,3.73
2017-07-09T13:56:48.526Z,3.90
2017-07-09T13:59:16.059Z,3.43
2017-07-09T14:01:43.593Z,3.33
2017-07-09T14:04:11.160Z,4.10
2017-07-09T14:06:38.704Z,3.20
2017-07-09T14:09:06.236Z,2.80
2017-07-09T14:11:34.559Z,3.90
2017-07-09T14:14:02.309Z,3.20
2017-07-09T14:16:29.870Z,3.07
2017-07-09T14:18:57.447Z,3.23
2017-07-09T14:21:24.999Z,3.43
2017-07-09T14:23:52.527Z,4.23
2017-07-09T14:26:20.078Z,3.00
2017-07-09T14:28:48.364Z,2.93
2017-07-09T14:31:15.954Z,3.17
2017-07-09T14:33:43.480Z,3.10
2017-07-09T14:36:11.016Z,2.97
2017-07-09T14:38:39.337Z,3.37
2017-07-09T14:41:06.895Z,3.20
2017-07-09T14:43:34.525Z,2.83
2017-07-09T14:46:02.056Z,3.37
2017-07-09T14:48:29.624Z,3.27
2017-07-09T14:50:57.902Z,3.30
2017-07-09T14:53:26.201Z,2.80
2017-07-09T14:55:53.769Z,3.17
2017-07-09T14:58:21.284Z,3.40
2017-07-09T15:00:48.844Z,3.10
2017-07-09T15:03:16.382Z,3.13
2017-07-09T15:05:43.916Z,3.13
2017-07-09T15:08:11.513Z,3.20
2017-07-09T15:10:39.044Z,3.80
2017-07-09T15:13:06.592Z,3.20
2017-07-09T15:15:34.157Z,3.47
2017-07-09T15:18:01.672Z,3.40
2017-07-09T15:20:29.194Z,4.07
2017-07-09T15:22:56.743Z,5.80
2017-07-09T15:25:24.315Z,3.87
2017-07-09T15:27:51.832Z,3.27
2017-07-09T15:30:19.353Z,3.70
2017-07-09T15:32:46.942Z,3.50
2017-07-09T15:35:14.494Z,2.03
2017-07-09T15:37:42.024Z,2.03
2017-07-09T15:40:09.636Z,1.57
2017-07-09T15:42:37.183Z,1.33
2017-07-09T15:45:04.713Z,1.83
2017-07-09T15:47:32.326Z,1.53
2017-07-09T15:49:59.872Z,2.90
2017-07-09T15:52:27.392Z,2.03
2017-07-09T15:54:54.962Z,1.60
2017-07-09T15:57:22.502Z,1.60
2017-07-09T15:59:50.026Z,1.90
2017-07-09T16:02:18.356Z,2.03
2017-07-09T16:04:45.912Z,1.90
2017-07-09T16:07:13.490Z,1.87
2017-07-09T16:09:41.026Z,1.90
2017-07-09T16:12:08.588Z,1.40
2017-07-09T16:14:36.167Z,1.83
2017-07-09T16:17:03.700Z,2.00
2017-07-09T16:19:31.233Z,1.60
2017-07-09T16:21:58.788Z,1.40
2017-07-09T16:24:26.325Z,1.63
2017-07-09T16:26:54.626Z,1.73
2017-07-09T16:29:22.182Z,1.73
2017-07-09T16:31:49.717Z,1.73
2017-07-09T16:34:18.069Z,1.67
2017-07-09T16:36:45.603Z,1.83
2017-07-09T16:39:13.129Z,1.37
2017-07-09T16:41:40.693Z,2.00
2017-07-09T16:44:08.249Z,1.60
2017-07-09T16:46:35.797Z,1.80
2017-07-09T16:49:03.376Z,2.00
2017-07-09T16:51:31.060Z,1.40
2017-07-09T16:53:58.582Z,1.63
2017-07-09T16:56:26.157Z,2.17
2017-07-09T16:58:53.704Z,1.80
2017-07-09T17:01:21.254Z,2.30
2017-07-09T17:03:49.122Z,2.20
2017-07-09T17:06:16.674Z,1.70
2017-07-09T17:08:44.223Z,2.57
2017-07-09T17:11:11.812Z,2.23
2017-07-09T17:13:39.412Z,2.07
2017-07-09T17:16:06.939Z,2.03
2017-07-09T17:18:34.460Z,1.80
2017-07-09T17:21:02.018Z,2.40
2017-07-09T17:23:29.536Z,2.23
2017-07-09T17:25:57.085Z,2.10
2017-07-09T17:28:24.646Z,2.40
2017-07-09T17:30:52.173Z,1.77
2017-07-09T17:33:19.766Z,2.90
2017-07-09T17:35:47.331Z,2.30
2017-07-09T17:38:14.877Z,2.80
2017-07-09T17:40:42.512Z,2.60
2017-07-09T17:43:10.055Z,1.90
2017-07-09T17:45:37.585Z,2.03
2017-07-09T17:48:05.171Z,2.80
2017-07-09T17:50:32.734Z,2.00
2017-07-09T17:53:00.276Z,2.20
2017-07-09T17:55:27.862Z,2.40
2017-07-09T17:57:55.422Z,2.00
2017-07-09T18:00:23.167Z,2.50
2017-07-09T18:02:50.692Z,2.30
2017-07-09T18:05:19.012Z,2.17
2017-07-09T18:07:46.589Z,1.90
2017-07-09T18:10:14.156Z,2.30
2017-07-09T18:12:41.691Z,2.80
2017-07-09T18:15:09.275Z,2.27
2017-07-09T18:17:36.809Z,2.30
2017-07-09T18:20:04.345Z,2.50
2017-07-09T18:22:31.904Z,2.53
2017-07-09T18:24:59.426Z,2.60
2017-07-09T18:27:27.765Z,2.30
2017-07-09T18:29:55.292Z,2.50
2017-07-09T18:32:22.832Z,2.73
2017-07-09T18:34:51.174Z,2.43
2017-07-09T18:37:18.722Z,2.27
2017-07-09T18:39:46.271Z,2.57
2017-07-09T18:42:13.865Z,2.10
2017-07-09T18:44:42.195Z,2.90
2017-07-09T18:47:09.728Z,2.57
2017-07-09T18:49:37.297Z,3.10
2017-07-09T18:52:04.828Z,2.37
2017-07-09T18:54:33.226Z,2.37
2017-07-09T18:57:00.749Z,2.60
2017-07-09T18:59:29.074Z,2.50
2017-07-09T19:01:56.657Z,2.63
2017-07-09T19:04:24.202Z,2.00
2017-07-09T19:06:51.790Z,2.27
2017-07-09T19:09:19.343Z,2.40
2017-07-09T19:11:46.873Z,2.37
2017-07-09T19:14:14.438Z,2.63
2017-07-09T19:16:41.982Z,2.30
2017-07-09T19:19:09.570Z,2.30
2017-07-09T19:21:37.117Z,2.20
2017-07-09T19:24:04.657Z,2.63
2017-07-09T19:26:32.222Z,2.33
2017-07-09T19:28:59.803Z,3.20
2017-07-09T19:31:27.348Z,2.47
2017-07-09T19:33:54.873Z,2.53
2017-07-09T19:36:22.449Z,2.57
2017-07-09T19:38:49.976Z,2.83
2017-07-09T19:41:17.545Z,2.30
2017-07-09T19:43:45.078Z,2.20
2017-07-09T19:46:13.368Z,2.10
2017-07-09T19:48:40.930Z,2.50
2017-07-09T19:51:08.477Z,1.50
2017-07-09T19:53:36.017Z,2.20
2017-07-09T19:56:03.599Z,1.93
2017-07-09T19:58:31.130Z,2.20
2017-07-09T20:00:59.435Z,2.03
2017-07-09T20:03:27.012Z,1.97
2017-07-09T20:05:54.577Z,1.90
2017-07-09T20:08:22.104Z,2.47
2017-07-09T20:10:49.665Z,2.00
2017-07-09T20:13:17.241Z,2.00
2017-07-09T20:15:44.807Z,2.20
2017-07-09T20:18:12.469Z,2.27
2017-07-09T20:20:40.048Z,2.20
2017-07-09T20:23:07.573Z,2.50
2017-07-09T20:25:35.101Z,2.27
2017-07-09T20:28:02.673Z,1.90
2017-07-09T20:30:30.209Z,2.10
2017-07-09T20:32:58.528Z,2.07
2017-07-09T20:35:26.089Z,2.73
2017-07-09T20:37:53.632Z,2.33
2017-07-09T20:40:21.300Z,3.03
2017-07-09T20:42:48.836Z,2.67
2017-07-09T20:45:16.376Z,2.00
2017-07-09T20:47:44.710Z,2.07
2017-07-09T20:50:12.287Z,2.17
2017-07-09T20:52:39.815Z,2.27
2017-07-09T20:55:07.342Z,2.70
2017-07-09T20:57:34.905Z,3.17
2017-07-09T21:00:02.447Z,3.20
2017-07-09T21:02:30.741Z,2.20
2017-07-09T21:04:58.297Z,2.43
2017-07-09T21:07:25.826Z,3.13
2017-07-09T21:09:54.147Z,2.60
2017-07-09T21:12:21.744Z,2.70
2017-07-09T21:14:49.313Z,3.07
2017-07-09T21:17:16.861Z,2.20
2017-07-09T21:19:44.446Z,3.00
2017-07-09T21:22:12.753Z,2.50
2017-07-09T21:24:40.436Z,2.70
2017-07-09T21:27:07.959Z,2.63
2017-07-09T21:29:35.505Z,2.67
2017-07-09T21:32:03.103Z,2.53
2017-07-09T21:34:30.640Z,2.17
2017-07-09T21:36:58.189Z,2.67
2017-07-09T21:39:25.760Z,2.40
2017-07-09T21:41:53.297Z,2.60
2017-07-09T21:44:20.829Z,2.60
2017-07-09T21:46:48.420Z,2.60
2017-07-09T21:49:15.961Z,3.00
2017-07-09T21:51:43.545Z,2.60
2017-07-09T21:54:11.174Z,2.70
2017-07-09T21:56:39.490Z,2.50
2017-07-09T21:59:07.033Z,3.80
2017-07-09T22:01:34.624Z,2.60
2017-07-09T22:04:02.170Z,2.03
2017-07-09T22:06:29.701Z,2.40
2017-07-09T22:08:57.261Z,2.83
2017-07-09T22:11:24.786Z,2.07
2017-07-09T22:13:52.366Z,1.97
2017-07-09T22:16:20.660Z,2.00
2017-07-09T22:18:48.180Z,2.00
2017-07-09T22:21:16.580Z,2.13
2017-07-09T22:23:44.112Z,2.00
2017-07-09T22:26:11.648Z,1.50
2017-07-09T22:28:39.222Z,1.77
2017-07-09T22:31:06.773Z,1.53
2017-07-09T22:33:34.304Z,1.53
2017-07-09T22:36:01.869Z,1.70
2017-07-09T22:38:29.415Z,1.43
2017-07-09T22:40:57.002Z,1.60
2017-07-09T22:43:24.538Z,1.20
2017-07-09T22:45:52.081Z,1.80
2017-07-09T22:48:19.656Z,1.50
2017-07-09T22:50:47.185Z,1.30
2017-07-09T22:53:14.720Z,1.50
2017-07-09T22:55:42.289Z,1.30
2017-07-09T22:58:09.826Z,1.47
2017-07-09T23:00:37.387Z,1.77
2017-07-09T23:03:05.692Z,1.70
2017-07-09T23:05:33.225Z,1.50
2017-07-09T23:08:01.557Z,1.50
2017-07-09T23:10:29.117Z,1.97
2017-07-09T23:12:56.661Z,1.70
2017-07-09T23:15:24.219Z,1.60
2017-07-09T23:17:51.805Z,1.50
2017-07-09T23:20:19.337Z,1.57
2017-07-09T23:22:46.864Z,1.50
2017-07-09T23:25:14.416Z,1.53
2017-07-09T23:27:41.973Z,1.30
2017-07-09T23:30:10.261Z,1.50
2017-07-09T23:32:37.814Z,1.77
2017-07-09T23:35:05.353Z,1.70
2017-07-09T23:37:33.701Z,2.13
2017-07-09T23:40:01.225Z,1.50
2017-07-09T23:42:28.758Z,2.23
2017-07-09T23:44:56.338Z,1.70
2017-07-09T23:47:23.870Z,1.80
2017-07-09T23:49:51.416Z,2.00
2017-07-09T23:52:19.758Z,2.03
2017-07-09T23:54:47.279Z,2.10
2017-07-09T23:57:14.864Z,2.20
2017-07-09T23:59:42.389Z,1.80
